createdAt,value
2019-02-07T00:00:01.218Z,8.40
2019-02-07T00:02:05.774Z,8.40
2019-02-07T00:04:10.381Z,8.40
2019-02-07T00:06:14.861Z,8.40
2019-02-07T00:08:19.329Z,8.30
2019-02-07T00:10:23.728Z,8.30
2019-02-07T00:12:28.163Z,8.30
2019-02-07T00:14:39.476Z,8.30
2019-02-07T00:16:36.912Z,8.30
2019-02-07T00:18:41.365Z,8.30
2019-02-07T00:20:45.900Z,8.30
2019-02-07T00:22:50.262Z,8.30
2019-02-07T00:24:54.651Z,8.30
2019-02-07T00:26:59.038Z,8.20
2019-02-07T00:29:03.451Z,8.20
2019-02-07T00:31:07.846Z,8.20
2019-02-07T00:33:12.291Z,8.20
2019-02-07T00:35:16.780Z,8.20
2019-02-07T00:37:21.231Z,8.20
2019-02-07T00:39:25.594Z,8.20
2019-02-07T00:41:29.961Z,8.20
2019-02-07T00:43:34.377Z,8.20
2019-02-07T00:45:38.944Z,8.20
2019-02-07T00:47:43.402Z,8.10
2019-02-07T00:49:47.761Z,8.10
2019-02-07T00:51:52.189Z,8.10
2019-02-07T00:53:56.575Z,8.10
2019-02-07T00:56:00.951Z,8.10
2019-02-07T00:58:05.378Z,8.10
2019-02-07T01:00:15.754Z,8.00
2019-02-07T01:02:20.205Z,8.00
2019-02-07T01:04:24.816Z,8.00
2019-02-07T01:06:29.362Z,8.00
2019-02-07T01:08:33.771Z,8.00
2019-02-07T01:10:38.174Z,8.00
2019-02-07T01:12:42.649Z,7.90
2019-02-07T01:14:47.007Z,8.00
2019-02-07T01:16:51.409Z,7.90
2019-02-07T01:18:55.910Z,8.00
2019-02-07T01:21:00.242Z,8.00
2019-02-07T01:23:04.747Z,8.00
2019-02-07T01:25:11.098Z,7.90
2019-02-07T01:27:15.551Z,7.90
2019-02-07T01:29:20.051Z,8.00
2019-02-07T01:31:24.494Z,8.00
2019-02-07T01:33:28.926Z,8.10
2019-02-07T01:35:34.825Z,8.10
2019-02-07T01:37:40.559Z,8.10
2019-02-07T01:39:45.133Z,8.10
2019-02-07T01:41:49.549Z,8.10
2019-02-07T01:43:53.918Z,8.10
2019-02-07T01:45:58.286Z,8.10
2019-02-07T01:48:02.678Z,8.10
2019-02-07T01:50:08.819Z,8.20
2019-02-07T01:52:13.205Z,8.10
2019-02-07T01:54:17.690Z,8.10
2019-02-07T01:56:22.119Z,8.00
2019-02-07T01:58:26.537Z,8.00
2019-02-07T02:00:30.998Z,8.00
2019-02-07T02:02:35.357Z,8.00
2019-02-07T02:04:39.730Z,8.00
2019-02-07T02:06:44.122Z,8.00
2019-02-07T02:08:48.587Z,8.00
2019-02-07T02:10:52.948Z,8.00
2019-02-07T02:12:57.444Z,7.90
2019-02-07T02:15:01.807Z,7.90
2019-02-07T02:17:06.278Z,7.90
2019-02-07T02:19:10.625Z,7.90
2019-02-07T02:21:15.087Z,7.90
2019-02-07T02:23:19.459Z,7.80
2019-02-07T02:25:23.924Z,7.90
2019-02-07T02:27:28.441Z,7.80
2019-02-07T02:29:32.770Z,7.70
2019-02-07T02:31:37.149Z,7.70
2019-02-07T02:33:41.529Z,7.70
2019-02-07T02:35:45.914Z,7.60
2019-02-07T02:37:50.387Z,7.60
2019-02-07T02:39:54.767Z,7.60
2019-02-07T02:41:59.195Z,7.50
2019-02-07T02:44:03.641Z,7.50
2019-02-07T02:46:08.102Z,7.40
2019-02-07T02:48:12.488Z,7.40
2019-02-07T02:50:17.740Z,7.40
2019-02-07T02:52:22.134Z,7.40
2019-02-07T02:54:33.066Z,7.40
2019-02-07T02:56:37.445Z,7.30
2019-02-07T02:58:41.819Z,7.30
2019-02-07T03:00:51.534Z,7.20
2019-02-07T03:03:01.094Z,7.20
2019-02-07T03:05:14.869Z,7.10
2019-02-07T03:07:27.009Z,7.10
2019-02-07T03:10:06.956Z,7.20
2019-02-07T03:12:17.308Z,7.10
2019-02-07T03:14:26.790Z,7.10
2019-02-07T03:16:36.066Z,7.00
2019-02-07T03:18:45.605Z,7.00
2019-02-07T03:21:10.187Z,7.00
2019-02-07T03:23:19.778Z,7.00
2019-02-07T03:25:30.175Z,7.00
2019-02-07T03:27:48.647Z,6.90
2019-02-07T03:31:02.820Z,6.90
2019-02-07T03:34:10.124Z,6.90
2019-02-07T03:36:24.811Z,6.90
2019-02-07T03:38:34.269Z,6.90
2019-02-07T03:41:44.503Z,6.90
2019-02-07T03:43:53.011Z,6.90
2019-02-07T03:46:04.521Z,6.90
2019-02-07T03:50:20.089Z,6.90
2019-02-07T03:53:33.210Z,6.90
2019-02-07T03:55:41.759Z,6.90
2019-02-07T03:58:05.252Z,6.90
2019-02-07T04:00:15.735Z,6.90
2019-02-07T04:02:25.600Z,6.90
2019-02-07T04:04:41.089Z,6.90
2019-02-07T04:06:52.398Z,6.90
2019-02-07T04:09:01.807Z,6.90
2019-02-07T04:12:15.857Z,6.90
2019-02-07T04:14:28.404Z,6.90
2019-02-07T04:16:43.879Z,7.00
2019-02-07T04:18:53.478Z,7.00
2019-02-07T04:21:03.169Z,7.00
2019-02-07T04:23:13.586Z,7.10
2019-02-07T04:26:21.660Z,7.00
2019-02-07T04:29:31.595Z,7.10
2019-02-07T04:31:41.199Z,7.10
2019-02-07T04:34:22.004Z,7.10
2019-02-07T04:37:29.628Z,7.10
2019-02-07T04:40:41.116Z,7.10
2019-02-07T04:43:01.914Z,7.20
2019-02-07T04:45:10.940Z,7.20
2019-02-07T04:47:25.449Z,7.20
2019-02-07T04:49:34.901Z,7.20
2019-02-07T04:52:42.875Z,7.20
2019-02-07T04:54:57.410Z,7.20
2019-02-07T04:57:09.957Z,7.20
2019-02-07T04:59:27.518Z,7.30
2019-02-07T05:02:42.736Z,7.30
2019-02-07T05:04:58.321Z,7.30
2019-02-07T05:07:10.751Z,7.30
2019-02-07T05:09:50.710Z,7.30
2019-02-07T05:12:01.224Z,7.40
2019-02-07T05:14:10.882Z,7.40
2019-02-07T05:17:27.133Z,7.40
2019-02-07T05:20:09.068Z,7.50
2019-02-07T05:22:20.509Z,7.50
2019-02-07T05:24:38.360Z,7.50
2019-02-07T05:26:48.752Z,7.60
2019-02-07T05:29:28.587Z,7.60
2019-02-07T05:32:13.287Z,7.50
2019-02-07T05:34:22.803Z,7.60
2019-02-07T05:38:35.064Z,7.70
2019-02-07T05:40:43.591Z,7.60
2019-02-07T05:42:53.005Z,7.70
2019-02-07T05:45:08.395Z,7.70
2019-02-07T05:47:17.905Z,7.80
2019-02-07T05:49:28.486Z,7.80
2019-02-07T05:51:37.820Z,7.80
2019-02-07T05:53:48.433Z,7.80
2019-02-07T05:57:01.689Z,7.80
2019-02-07T05:59:11.198Z,7.90
2019-02-07T06:02:18.185Z,7.80
2019-02-07T06:04:26.721Z,7.80
2019-02-07T06:07:35.964Z,7.80
2019-02-07T06:11:51.048Z,7.80
2019-02-07T06:14:17.727Z,7.90
2019-02-07T06:18:32.223Z,7.80
2019-02-07T06:20:41.795Z,7.80
2019-02-07T06:23:50.966Z,7.80
2019-02-07T06:26:09.343Z,7.80
2019-02-07T06:28:22.875Z,7.80
2019-02-07T06:30:32.604Z,7.80
2019-02-07T06:32:58.330Z,7.80
2019-02-07T06:35:07.925Z,7.80
2019-02-07T06:37:32.453Z,7.80
2019-02-07T06:39:59.936Z,7.90
2019-02-07T06:42:41.943Z,7.80
2019-02-07T06:45:07.605Z,7.80
2019-02-07T06:47:31.236Z,7.80
2019-02-07T06:49:48.873Z,7.80
2019-02-07T06:51:58.319Z,7.80
2019-02-07T06:56:11.386Z,7.80
2019-02-07T06:58:24.050Z,7.80
2019-02-07T07:02:36.491Z,7.80
2019-02-07T07:04:46.087Z,7.90
2019-02-07T07:06:59.649Z,7.80
2019-02-07T07:10:12.443Z,7.90
2019-02-07T07:12:36.182Z,7.80
2019-02-07T07:14:47.661Z,7.90
2019-02-07T07:17:07.294Z,7.90
2019-02-07T07:20:15.411Z,7.90
2019-02-07T07:22:24.998Z,7.90
2019-02-07T07:26:42.242Z,8.00
2019-02-07T07:28:51.753Z,8.00
2019-02-07T07:31:01.358Z,8.00
2019-02-07T07:33:11.084Z,8.10
2019-02-07T07:35:25.562Z,8.10
2019-02-07T07:37:34.114Z,8.10
2019-02-07T07:39:43.831Z,8.10
2019-02-07T07:41:54.338Z,8.20
2019-02-07T07:44:03.751Z,8.20
2019-02-07T07:46:24.365Z,8.20
2019-02-07T07:48:37.675Z,8.20
2019-02-07T07:50:47.451Z,8.20
2019-02-07T07:53:11.942Z,8.20
2019-02-07T07:56:19.138Z,8.20
2019-02-07T07:58:29.489Z,8.20
2019-02-07T08:01:38.846Z,8.30
2019-02-07T08:03:57.386Z,8.30
2019-02-07T08:06:40.180Z,8.30
2019-02-07T08:09:52.580Z,8.40
2019-02-07T08:12:02.057Z,8.40
2019-02-07T08:14:25.788Z,8.40
2019-02-07T08:18:37.862Z,8.50
2019-02-07T08:20:50.211Z,8.50
2019-02-07T08:23:30.951Z,8.50
2019-02-07T08:25:40.660Z,8.40
2019-02-07T08:27:54.124Z,8.40
2019-02-07T08:32:06.079Z,8.40
2019-02-07T08:34:15.714Z,8.40
2019-02-07T08:36:25.865Z,8.50
2019-02-07T08:38:34.422Z,8.40
2019-02-07T08:40:49.022Z,8.50
2019-02-07T08:45:05.982Z,8.50
2019-02-07T08:47:15.322Z,8.40
2019-02-07T08:49:24.830Z,8.50
2019-02-07T08:51:34.442Z,8.50
2019-02-07T08:53:43.869Z,8.50
2019-02-07T08:55:52.435Z,8.50
2019-02-07T08:58:02.282Z,8.50
2019-02-07T09:00:21.136Z,8.50
2019-02-07T09:03:00.802Z,8.60
2019-02-07T09:18:11.333Z,8.60
2019-02-07T09:20:20.399Z,8.60
2019-02-07T09:23:36.293Z,8.40
2019-02-07T09:25:52.910Z,8.50
2019-02-07T09:28:10.460Z,8.50
2019-02-07T09:30:21.854Z,8.50
2019-02-07T09:33:40.303Z,8.50
2019-02-07T09:35:52.774Z,8.50
2019-02-07T09:38:02.463Z,8.50
2019-02-07T09:41:12.507Z,8.50
2019-02-07T09:43:22.046Z,8.60
2019-02-07T09:45:31.749Z,8.60
2019-02-07T09:47:46.167Z,8.50
2019-02-07T09:50:56.528Z,8.60
2019-02-07T09:54:04.765Z,8.60
2019-02-07T09:56:15.233Z,8.60
2019-02-07T09:58:28.663Z,8.70
2019-02-07T10:00:40.094Z,8.70
2019-02-07T10:02:49.628Z,8.80
2019-02-07T10:05:14.116Z,8.80
2019-02-07T10:07:28.542Z,8.90
2019-02-07T10:09:38.090Z,9.00
2019-02-07T10:11:54.987Z,9.10
2019-02-07T10:15:05.234Z,9.10
2019-02-07T10:17:14.925Z,9.10
2019-02-07T10:19:24.616Z,9.10
2019-02-07T10:21:35.008Z,9.10
2019-02-07T10:23:45.543Z,9.20
2019-02-07T10:28:01.652Z,9.30
2019-02-07T10:32:17.637Z,9.30
2019-02-07T10:34:30.091Z,9.30
2019-02-07T10:36:40.578Z,9.30
2019-02-07T10:38:57.005Z,9.30
2019-02-07T10:41:08.526Z,9.30
2019-02-07T10:43:17.482Z,9.40
2019-02-07T10:47:30.561Z,9.30
2019-02-07T10:50:13.052Z,9.40
2019-02-07T10:52:22.671Z,9.50
2019-02-07T10:56:36.565Z,9.60
2019-02-07T10:59:52.154Z,9.70
2019-02-07T11:02:01.691Z,9.80
2019-02-07T11:04:11.362Z,9.90
2019-02-07T11:07:18.491Z,9.90
2019-02-07T11:11:32.590Z,10.00
2019-02-07T11:13:44.955Z,10.00
2019-02-07T11:15:54.918Z,9.90
2019-02-07T11:18:04.491Z,9.90
2019-02-07T11:20:18.286Z,9.90
2019-02-07T11:22:27.954Z,9.90
2019-02-07T11:25:38.103Z,10.00
2019-02-07T11:27:48.484Z,10.00
2019-02-07T11:29:58.018Z,10.10
2019-02-07T11:32:07.717Z,10.20
2019-02-07T11:34:19.285Z,10.30
2019-02-07T11:36:53.542Z,10.30
2019-02-07T11:38:52.306Z,10.30
2019-02-07T11:41:01.833Z,10.40
2019-02-07T11:43:10.635Z,10.50
2019-02-07T11:45:22.386Z,10.50
2019-02-07T11:47:39.909Z,10.50
2019-02-07T11:49:52.419Z,10.40
2019-02-07T11:52:04.819Z,10.40
2019-02-07T11:54:20.325Z,10.50
2019-02-07T11:56:30.937Z,10.40
2019-02-07T11:58:40.509Z,10.40
2019-02-07T12:01:06.493Z,10.50
2019-02-07T12:03:18.797Z,10.40
2019-02-07T12:05:28.336Z,10.40
2019-02-07T12:07:44.832Z,10.50
2019-02-07T12:10:29.509Z,10.50
2019-02-07T12:12:52.837Z,10.50
2019-02-07T12:15:07.329Z,10.40
2019-02-07T12:17:18.815Z,10.40
2019-02-07T12:20:26.786Z,10.40
2019-02-07T12:24:40.266Z,10.40
2019-02-07T12:27:03.738Z,10.40
2019-02-07T12:29:14.035Z,10.40
2019-02-07T12:31:28.743Z,10.40
2019-02-07T12:34:40.893Z,10.40
2019-02-07T12:36:51.224Z,10.50
2019-02-07T12:41:06.915Z,10.50
2019-02-07T12:43:16.558Z,10.60
2019-02-07T12:45:28.011Z,10.60
2019-02-07T12:47:43.430Z,10.60
2019-02-07T12:49:53.170Z,10.60
2019-02-07T12:52:01.698Z,10.60
2019-02-07T12:55:16.582Z,10.70
2019-02-07T12:57:29.921Z,10.80
2019-02-07T12:59:39.462Z,10.80
2019-02-07T13:03:53.011Z,10.70
2019-02-07T13:06:02.439Z,10.70
2019-02-07T13:08:21.215Z,10.70
2019-02-07T13:12:34.720Z,10.70
2019-02-07T13:15:45.745Z,10.60
2019-02-07T13:17:55.566Z,10.60
2019-02-07T13:22:11.080Z,10.50
2019-02-07T13:24:27.226Z,10.60
2019-02-07T13:26:36.587Z,10.60
2019-02-07T13:29:01.310Z,10.70
2019-02-07T13:31:12.809Z,10.70
2019-02-07T13:33:22.553Z,10.70
2019-02-07T13:35:33.922Z,10.70
2019-02-07T13:37:43.437Z,10.80
2019-02-07T13:39:52.886Z,10.80
2019-02-07T13:42:02.538Z,10.70
2019-02-07T13:46:18.373Z,10.70
2019-02-07T13:50:32.622Z,10.70
2019-02-07T13:54:44.116Z,10.70
2019-02-07T13:57:09.627Z,10.60
2019-02-07T14:00:17.558Z,10.60
2019-02-07T14:02:27.196Z,10.70
2019-02-07T14:04:38.563Z,10.70
2019-02-07T14:08:51.977Z,10.70
2019-02-07T14:13:08.601Z,10.70
2019-02-07T14:15:18.373Z,10.70
2019-02-07T14:17:30.782Z,10.70
2019-02-07T14:20:03.792Z,10.80
2019-02-07T14:22:07.941Z,10.70
2019-02-07T14:24:23.931Z,10.70
2019-02-07T14:26:33.878Z,10.80
2019-02-07T14:28:50.761Z,10.80
2019-02-07T14:31:06.408Z,10.70
2019-02-07T14:33:15.517Z,10.70
2019-02-07T14:35:29.863Z,10.80
2019-02-07T14:39:42.271Z,10.70
2019-02-07T14:41:54.740Z,10.80
2019-02-07T14:44:04.454Z,10.60
2019-02-07T14:46:46.218Z,10.60
2019-02-07T14:48:50.647Z,10.60
2019-02-07T14:50:56.147Z,10.60
2019-02-07T14:53:02.069Z,10.60
2019-02-07T14:55:05.503Z,10.60
2019-02-07T14:57:10.088Z,10.70
2019-02-07T14:59:15.025Z,10.70
2019-02-07T15:01:19.784Z,10.70
2019-02-07T15:03:24.350Z,10.80
2019-02-07T15:05:31.406Z,10.80
2019-02-07T15:07:33.120Z,10.80
2019-02-07T15:09:37.512Z,10.90
2019-02-07T15:11:42.027Z,10.90
2019-02-07T15:13:46.558Z,10.80
2019-02-07T15:15:50.929Z,10.80
2019-02-07T15:17:55.377Z,10.70
2019-02-07T15:19:59.888Z,10.80
2019-02-07T15:22:04.369Z,10.60
2019-02-07T15:24:08.882Z,10.50
2019-02-07T15:26:14.593Z,10.50
2019-02-07T15:28:19.247Z,10.50
2019-02-07T15:30:23.733Z,10.40
2019-02-07T15:32:28.172Z,10.40
2019-02-07T15:34:32.550Z,10.40
2019-02-07T15:36:38.087Z,10.30
2019-02-07T15:38:42.556Z,10.30
2019-02-07T15:40:47.023Z,10.30
2019-02-07T15:42:51.459Z,10.30
2019-02-07T15:44:55.988Z,10.30
2019-02-07T15:47:00.404Z,10.20
2019-02-07T15:49:05.057Z,10.20
2019-02-07T15:51:09.694Z,10.20
2019-02-07T15:53:14.166Z,10.20
2019-02-07T15:55:18.747Z,10.20
2019-02-07T15:57:23.337Z,10.20
2019-02-07T15:59:32.050Z,10.30
2019-02-07T16:01:41.423Z,10.30
2019-02-07T16:04:21.619Z,10.10
2019-02-07T16:06:26.100Z,10.10
2019-02-07T16:08:30.814Z,10.10
2019-02-07T16:10:35.215Z,10.10
2019-02-07T16:12:39.673Z,10.00
2019-02-07T16:14:44.062Z,10.00
2019-02-07T16:16:48.469Z,9.90
2019-02-07T16:18:53.091Z,9.90
2019-02-07T16:20:57.558Z,9.80
2019-02-07T16:23:02.175Z,9.80
2019-02-07T16:25:07.582Z,9.70
2019-02-07T16:27:11.974Z,9.70
2019-02-07T16:29:16.369Z,9.70
2019-02-07T16:31:20.784Z,9.70
2019-02-07T16:33:25.271Z,9.60
2019-02-07T16:35:29.665Z,9.60
2019-02-07T16:37:34.071Z,9.60
2019-02-07T16:39:38.433Z,9.60
2019-02-07T16:41:42.850Z,9.50
2019-02-07T16:43:47.305Z,9.50
2019-02-07T16:45:51.714Z,9.50
2019-02-07T16:47:56.103Z,9.50
2019-02-07T16:50:00.473Z,9.50
2019-02-07T16:52:05.050Z,9.50
2019-02-07T16:54:09.577Z,9.50
2019-02-07T16:56:14.055Z,9.50
2019-02-07T16:58:18.413Z,9.50
2019-02-07T17:00:24.202Z,9.60
2019-02-07T17:02:28.600Z,9.60
2019-02-07T17:04:32.997Z,9.50
2019-02-07T17:06:37.419Z,9.50
2019-02-07T17:08:41.883Z,9.50
2019-02-07T17:10:46.353Z,9.40
2019-02-07T17:12:50.752Z,9.30
2019-02-07T17:14:55.137Z,9.30
2019-02-07T17:16:59.502Z,9.20
2019-02-07T17:19:03.939Z,9.20
2019-02-07T17:21:12.526Z,9.10
2019-02-07T17:23:12.805Z,9.10
2019-02-07T17:25:17.252Z,9.10
2019-02-07T17:27:21.639Z,9.00
2019-02-07T17:29:26.086Z,9.00
2019-02-07T17:31:30.456Z,8.90
2019-02-07T17:33:34.918Z,8.90
2019-02-07T17:35:39.429Z,8.90
2019-02-07T17:37:43.902Z,8.90
2019-02-07T17:39:48.306Z,8.80
2019-02-07T17:41:52.666Z,8.80
2019-02-07T17:43:57.069Z,8.80
2019-02-07T17:46:01.500Z,8.80
2019-02-07T17:48:05.988Z,8.80
2019-02-07T17:50:13.423Z,8.80
2019-02-07T17:52:17.869Z,8.80
2019-02-07T17:54:22.248Z,8.90
2019-02-07T17:56:26.594Z,8.90
2019-02-07T17:58:31.602Z,8.90
2019-02-07T18:00:44.026Z,8.90
2019-02-07T18:02:54.859Z,8.90
2019-02-07T18:04:59.265Z,8.90
2019-02-07T18:07:03.865Z,9.00
2019-02-07T18:09:09.670Z,9.00
2019-02-07T18:11:14.093Z,8.90
2019-02-07T18:13:18.493Z,9.00
2019-02-07T18:15:22.871Z,9.00
2019-02-07T18:17:27.246Z,9.00
2019-02-07T18:19:33.344Z,8.90
2019-02-07T18:21:38.283Z,9.00
2019-02-07T18:23:42.625Z,8.90
2019-02-07T18:25:46.962Z,8.90
2019-02-07T18:27:53.326Z,8.90
2019-02-07T18:29:57.725Z,8.90
2019-02-07T18:32:02.104Z,8.90
2019-02-07T18:34:06.824Z,8.90
2019-02-07T18:36:11.280Z,8.90
2019-02-07T18:38:15.610Z,8.90
2019-02-07T18:40:22.080Z,8.90
2019-02-07T18:42:26.463Z,9.00
2019-02-07T18:44:30.878Z,8.90
2019-02-07T18:46:35.323Z,8.90
2019-02-07T18:48:39.726Z,8.90
2019-02-07T18:50:44.152Z,9.00
2019-02-07T18:52:48.678Z,8.90
2019-02-07T18:54:52.998Z,8.90
2019-02-07T18:56:57.367Z,9.00
2019-02-07T18:59:01.779Z,8.90
2019-02-07T19:01:06.186Z,9.00
2019-02-07T19:03:10.571Z,9.00
2019-02-07T19:05:16.542Z,8.90
2019-02-07T19:07:20.884Z,8.90
2019-02-07T19:09:25.286Z,8.90
2019-02-07T19:11:29.727Z,8.90
2019-02-07T19:13:34.133Z,8.90
2019-02-07T19:15:41.248Z,8.90
2019-02-07T19:17:45.763Z,8.90
2019-02-07T19:19:50.148Z,8.90
2019-02-07T19:21:57.239Z,8.90
2019-02-07T19:23:58.958Z,8.90
2019-02-07T19:26:03.560Z,8.90
2019-02-07T19:28:08.355Z,8.90
2019-02-07T19:30:21.125Z,8.90
2019-02-07T19:32:25.534Z,8.90
2019-02-07T19:34:29.958Z,8.90
2019-02-07T19:36:34.426Z,8.80
2019-02-07T19:38:38.827Z,8.80
2019-02-07T19:40:43.297Z,8.80
2019-02-07T19:42:47.724Z,8.80
2019-02-07T19:44:52.101Z,8.80
2019-02-07T19:46:56.510Z,8.70
2019-02-07T19:49:00.845Z,8.70
2019-02-07T19:51:05.271Z,8.60
2019-02-07T19:53:09.679Z,8.60
2019-02-07T19:55:16.087Z,8.60
2019-02-07T19:57:20.449Z,8.60
2019-02-07T19:59:24.851Z,8.60
2019-02-07T20:01:29.249Z,8.60
2019-02-07T20:03:33.607Z,8.60
2019-02-07T20:05:38.088Z,8.70
2019-02-07T20:07:42.569Z,8.60
2019-02-07T20:09:46.951Z,8.60
2019-02-07T20:11:51.367Z,8.60
2019-02-07T20:13:55.828Z,8.60
2019-02-07T20:16:00.317Z,8.50
2019-02-07T20:18:05.322Z,8.50
2019-02-07T20:20:10.075Z,8.60
2019-02-07T20:22:20.162Z,8.60
2019-02-07T20:24:18.925Z,8.60
2019-02-07T20:26:23.349Z,8.50
2019-02-07T20:28:27.820Z,8.60
2019-02-07T20:30:34.171Z,8.60
2019-02-07T20:32:38.575Z,8.60
2019-02-07T20:34:43.022Z,8.60
2019-02-07T20:36:47.382Z,8.60
2019-02-07T20:38:51.830Z,8.50
2019-02-07T20:40:56.312Z,8.50
2019-02-07T20:43:00.694Z,8.50
2019-02-07T20:45:05.791Z,8.50
2019-02-07T20:47:10.216Z,8.40
2019-02-07T20:49:14.604Z,8.50
2019-02-07T20:51:19.084Z,8.50
2019-02-07T20:53:23.552Z,8.40
2019-02-07T20:55:28.063Z,8.40
2019-02-07T20:57:32.510Z,8.40
2019-02-07T20:59:36.862Z,8.40
2019-02-07T21:01:41.360Z,8.30
2019-02-07T21:03:45.870Z,8.40
2019-02-07T21:05:50.337Z,8.40
2019-02-07T21:07:59.862Z,8.40
2019-02-07T21:10:04.965Z,8.40
2019-02-07T21:12:09.350Z,8.40
2019-02-07T21:14:13.711Z,8.40
2019-02-07T21:16:18.100Z,8.40
2019-02-07T21:18:22.498Z,8.30
2019-02-07T21:20:27.954Z,8.30
2019-02-07T21:22:34.662Z,8.30
2019-02-07T21:24:36.754Z,8.30
2019-02-07T21:26:41.302Z,8.30
2019-02-07T21:28:45.786Z,8.30
2019-02-07T21:30:50.206Z,8.30
2019-02-07T21:32:55.139Z,8.30
2019-02-07T21:34:59.566Z,8.30
2019-02-07T21:37:04.027Z,8.30
2019-02-07T21:39:10.925Z,8.20
2019-02-07T21:41:15.446Z,8.20
2019-02-07T21:43:19.810Z,8.20
2019-02-07T21:45:24.317Z,8.20
2019-02-07T21:47:28.678Z,8.20
2019-02-07T21:49:33.075Z,8.20
2019-02-07T21:51:37.492Z,8.20
2019-02-07T21:53:41.910Z,8.20
2019-02-07T21:55:46.346Z,8.20
2019-02-07T21:57:50.758Z,8.20
2019-02-07T22:00:00.755Z,8.20
2019-02-07T22:01:59.663Z,8.10
2019-02-07T22:04:04.246Z,8.10
2019-02-07T22:06:08.689Z,8.10
2019-02-07T22:08:13.230Z,8.10
2019-02-07T22:10:17.760Z,8.10
2019-02-07T22:12:22.216Z,8.00
2019-02-07T22:14:26.637Z,8.10
2019-02-07T22:16:31.072Z,8.10
2019-02-07T22:18:35.438Z,8.00
2019-02-07T22:20:39.850Z,8.00
2019-02-07T22:22:49.092Z,8.00
2019-02-07T22:24:48.813Z,8.00
2019-02-07T22:26:53.163Z,8.00
2019-02-07T22:28:57.599Z,8.00
2019-02-07T22:31:02.087Z,7.90
2019-02-07T22:33:07.161Z,8.00
2019-02-07T22:35:11.598Z,7.90
2019-02-07T22:37:16.025Z,7.90
2019-02-07T22:39:20.374Z,7.90
2019-02-07T22:41:24.814Z,7.90
2019-02-07T22:43:29.225Z,7.90
2019-02-07T22:45:33.894Z,7.90
2019-02-07T22:47:38.365Z,7.90
2019-02-07T22:49:42.792Z,7.90
2019-02-07T22:51:47.323Z,7.80
2019-02-07T22:53:51.711Z,7.80
2019-02-07T22:55:56.085Z,7.90
2019-02-07T22:58:00.541Z,7.80
2019-02-07T23:00:09.986Z,7.90
2019-02-07T23:02:14.513Z,7.80
2019-02-07T23:04:19.591Z,7.90
2019-02-07T23:06:24.040Z,7.90
2019-02-07T23:08:28.498Z,7.80
2019-02-07T23:10:32.906Z,7.90
2019-02-07T23:12:37.321Z,7.90
2019-02-07T23:14:41.695Z,7.90
2019-02-07T23:16:46.221Z,7.90
2019-02-07T23:18:50.667Z,7.90
2019-02-07T23:20:55.005Z,7.90
2019-02-07T23:23:05.102Z,7.90
2019-02-07T23:25:04.069Z,7.90
2019-02-07T23:27:08.470Z,7.90
2019-02-07T23:29:12.868Z,7.80
2019-02-07T23:31:17.291Z,7.80
2019-02-07T23:33:21.742Z,7.90
2019-02-07T23:35:26.165Z,7.90
2019-02-07T23:37:30.540Z,7.90
2019-02-07T23:39:34.903Z,7.80
2019-02-07T23:41:39.314Z,7.80
2019-02-07T23:43:50.336Z,7.80
2019-02-07T23:45:48.315Z,7.80
2019-02-07T23:47:52.693Z,7.70
2019-02-07T23:49:57.110Z,7.70
2019-02-07T23:52:01.491Z,7.70
2019-02-07T23:54:06.011Z,7.70
2019-02-07T23:56:10.546Z,7.70
2019-02-07T23:58:14.973Z,7.70
